createdAt,value
2023-03-26T00:02:11.591Z,1.45
2023-03-26T00:04:37.798Z,0.82
2023-03-26T00:07:04.454Z,1.33
2023-03-26T00:09:30.447Z,1.30
2023-03-26T00:11:59.125Z,1.73
2023-03-26T00:14:26.004Z,0.90
2023-03-26T00:16:53.065Z,1.15
2023-03-26T00:19:18.922Z,1.42
2023-03-26T00:21:44.740Z,1.10
2023-03-26T00:24:15.596Z,1.00
2023-03-26T00:26:41.932Z,0.75
2023-03-26T00:29:09.174Z,1.02
2023-03-26T00:31:40.397Z,1.33
2023-03-26T00:34:06.332Z,1.00
2023-03-26T00:36:35.071Z,1.00
2023-03-26T00:39:04.464Z,1.88
2023-03-26T00:41:30.333Z,0.82
2023-03-26T00:43:57.383Z,1.30
2023-03-26T00:46:26.782Z,1.02
2023-03-26T00:48:52.609Z,1.10
2023-03-26T00:51:19.961Z,1.33
2023-03-26T00:53:46.774Z,1.50
2023-03-26T00:56:12.582Z,1.15
2023-03-26T00:58:38.420Z,1.20
2023-03-26T01:01:05.970Z,1.45
2023-03-26T01:03:33.106Z,1.45
2023-03-26T01:06:07.377Z,1.50
2023-03-26T01:08:37.671Z,1.77
2023-03-26T01:11:06.914Z,1.85
2023-03-26T01:13:35.172Z,1.83
2023-03-26T01:16:01.365Z,1.42
2023-03-26T01:18:33.549Z,1.60
2023-03-26T01:21:04.543Z,1.80
2023-03-26T01:23:36.880Z,1.70
2023-03-26T01:26:25.618Z,1.95
2023-03-26T01:28:56.696Z,1.73
2023-03-26T01:31:36.408Z,1.73
2023-03-26T01:34:02.150Z,2.33
2023-03-26T01:36:28.260Z,2.10
2023-03-26T01:39:01.295Z,1.77
2023-03-26T01:41:31.603Z,1.95
2023-03-26T01:44:00.126Z,1.92
2023-03-26T01:46:26.484Z,1.58
2023-03-26T01:48:52.340Z,1.80
2023-03-26T01:51:28.781Z,2.00
2023-03-26T01:53:54.736Z,2.65
2023-03-26T01:56:20.430Z,1.70
2023-03-26T01:58:51.922Z,1.70
2023-03-26T02:01:26.534Z,1.88
2023-03-26T02:04:00.232Z,2.00
2023-03-26T02:06:30.012Z,1.50
2023-03-26T02:09:02.197Z,1.50
2023-03-26T02:11:35.383Z,1.80
2023-03-26T02:14:02.743Z,1.45
2023-03-26T02:16:28.540Z,1.65
2023-03-26T02:18:55.120Z,1.30
2023-03-26T02:21:25.324Z,1.42
2023-03-26T02:23:57.073Z,1.83
2023-03-26T02:26:23.550Z,1.33
2023-03-26T02:28:49.366Z,1.30
2023-03-26T02:31:16.427Z,1.77
2023-03-26T02:33:44.014Z,1.38
2023-03-26T02:36:13.251Z,1.30
2023-03-26T02:38:39.480Z,1.70
2023-03-26T02:41:05.396Z,1.33
2023-03-26T02:43:31.124Z,1.17
2023-03-26T02:45:57.387Z,1.40
2023-03-26T02:48:23.256Z,1.90
2023-03-26T02:50:53.600Z,1.33
2023-03-26T02:53:21.053Z,1.00
2023-03-26T02:55:46.982Z,1.10
2023-03-26T02:58:16.817Z,1.45
2023-03-26T03:00:46.431Z,1.40
2023-03-26T03:03:12.899Z,1.52
2023-03-26T03:05:42.418Z,1.88
2023-03-26T03:08:08.708Z,2.05
2023-03-26T03:10:34.438Z,1.60
2023-03-26T03:13:00.260Z,1.73
2023-03-26T03:15:26.650Z,2.10
2023-03-26T03:17:52.353Z,1.45
2023-03-26T03:20:18.192Z,1.70
2023-03-26T03:22:44.000Z,2.42
2023-03-26T03:25:13.659Z,2.10
2023-03-26T03:27:40.661Z,1.08
2023-03-26T03:30:07.102Z,1.00
2023-03-26T03:32:33.001Z,1.15
2023-03-26T03:34:58.894Z,1.30
2023-03-26T03:37:25.679Z,1.50
2023-03-26T03:39:51.394Z,0.90
2023-03-26T03:42:17.255Z,0.73
2023-03-26T03:44:43.198Z,1.58
2023-03-26T03:47:12.900Z,0.90
2023-03-26T03:49:41.361Z,2.00
2023-03-26T03:52:07.403Z,1.10
2023-03-26T03:54:33.297Z,1.15
2023-03-26T03:56:59.030Z,2.55
2023-03-26T03:59:24.775Z,1.23
2023-03-26T04:01:50.515Z,1.00
2023-03-26T04:04:17.015Z,1.10
2023-03-26T04:06:43.283Z,1.58
2023-03-26T04:09:11.734Z,1.30
2023-03-26T04:11:37.457Z,1.10
2023-03-26T04:14:03.307Z,1.85
2023-03-26T04:16:29.160Z,1.40
2023-03-26T04:18:56.667Z,1.27
2023-03-26T04:21:23.653Z,1.05
2023-03-26T04:23:49.418Z,1.85
2023-03-26T04:26:16.895Z,1.70
2023-03-26T04:28:45.609Z,1.42
2023-03-26T04:31:15.070Z,1.50
2023-03-26T04:33:46.154Z,1.52
2023-03-26T04:36:13.041Z,1.50
2023-03-26T04:38:41.484Z,1.45
2023-03-26T04:41:10.711Z,2.78
2023-03-26T04:43:41.587Z,1.38
2023-03-26T04:46:09.823Z,1.40
2023-03-26T04:48:37.991Z,1.70
2023-03-26T04:51:06.418Z,1.60
2023-03-26T04:53:33.419Z,1.80
2023-03-26T04:56:22.590Z,2.30
2023-03-26T04:58:49.711Z,1.60
2023-03-26T05:01:16.062Z,1.40
2023-03-26T05:03:42.064Z,2.22
2023-03-26T05:06:09.900Z,1.75
2023-03-26T05:08:35.673Z,1.70
2023-03-26T05:11:01.558Z,1.77
2023-03-26T05:13:27.302Z,2.25
2023-03-26T05:15:53.093Z,1.48
2023-03-26T05:18:18.863Z,1.98
2023-03-26T05:20:44.633Z,2.38
2023-03-26T05:23:10.539Z,1.80
2023-03-26T05:25:36.300Z,1.67
2023-03-26T05:28:02.216Z,2.20
2023-03-26T05:30:28.089Z,2.00
2023-03-26T05:32:54.017Z,1.75
2023-03-26T05:35:20.099Z,1.70
2023-03-26T05:37:46.357Z,1.50
2023-03-26T05:40:14.131Z,1.63
2023-03-26T05:42:40.407Z,2.22
2023-03-26T05:45:10.554Z,1.73
2023-03-26T05:47:36.420Z,1.88
2023-03-26T05:50:02.721Z,1.70
2023-03-26T05:52:28.468Z,1.88
2023-03-26T05:54:54.219Z,1.25
2023-03-26T05:57:21.698Z,2.00
2023-03-26T05:59:47.587Z,2.13
2023-03-26T06:02:13.316Z,1.83
2023-03-26T06:04:40.349Z,1.45
2023-03-26T06:07:09.350Z,1.90
2023-03-26T06:09:37.952Z,1.60
2023-03-26T06:12:05.642Z,1.60
2023-03-26T06:14:31.376Z,1.50
2023-03-26T06:16:57.108Z,1.52
2023-03-26T06:19:22.910Z,2.42
2023-03-26T06:21:48.722Z,1.65
2023-03-26T06:24:15.832Z,0.90
2023-03-26T06:26:41.905Z,1.30
2023-03-26T06:29:07.837Z,1.52
2023-03-26T06:31:33.695Z,1.30
2023-03-26T06:33:59.649Z,1.35
2023-03-26T06:36:25.601Z,1.30
2023-03-26T06:38:51.404Z,2.40
2023-03-26T06:41:17.293Z,1.13
2023-03-26T06:43:43.083Z,1.58
2023-03-26T06:46:09.378Z,1.02
2023-03-26T06:48:35.239Z,1.00
2023-03-26T06:51:01.130Z,0.95
2023-03-26T06:53:26.911Z,0.90
2023-03-26T06:55:53.693Z,1.48
2023-03-26T06:58:19.806Z,1.20
2023-03-26T07:00:46.384Z,1.38
2023-03-26T07:03:12.274Z,1.30
2023-03-26T07:05:40.336Z,1.77
2023-03-26T07:08:06.061Z,1.15
2023-03-26T07:10:32.101Z,1.77
2023-03-26T07:12:57.939Z,1.85
2023-03-26T07:15:24.118Z,1.35
2023-03-26T07:17:50.365Z,1.40
2023-03-26T07:20:17.090Z,1.45
2023-03-26T07:22:43.279Z,1.40
2023-03-26T07:25:09.597Z,1.05
2023-03-26T07:27:37.167Z,1.15
2023-03-26T07:30:04.010Z,1.05
2023-03-26T07:32:48.459Z,1.42
2023-03-26T07:35:23.598Z,1.35
2023-03-26T07:37:49.352Z,1.20
2023-03-26T07:40:33.846Z,1.95
2023-03-26T07:43:11.406Z,1.98
2023-03-26T07:45:39.404Z,1.20
2023-03-26T07:48:33.274Z,1.42
2023-03-26T07:51:02.333Z,1.98
2023-03-26T07:53:28.297Z,1.83
2023-03-26T07:55:57.299Z,2.10
2023-03-26T07:58:32.155Z,1.65
2023-03-26T08:01:16.844Z,1.83
2023-03-26T08:04:24.008Z,1.63
2023-03-26T08:07:15.538Z,1.58
2023-03-26T08:09:50.246Z,1.33
2023-03-26T08:12:19.533Z,1.20
2023-03-26T08:15:04.741Z,1.70
2023-03-26T08:17:40.374Z,1.70
2023-03-26T08:20:18.191Z,1.23
2023-03-26T08:22:50.251Z,1.33
2023-03-26T08:25:19.108Z,1.27
2023-03-26T08:28:02.990Z,1.98
2023-03-26T08:30:29.291Z,1.40
2023-03-26T08:32:58.314Z,1.48
2023-03-26T08:35:25.344Z,1.23
2023-03-26T08:37:51.536Z,1.05
2023-03-26T08:40:37.461Z,1.05
2023-03-26T08:43:18.705Z,1.23
2023-03-26T08:45:56.436Z,1.50
2023-03-26T08:48:57.876Z,1.20
2023-03-26T08:51:31.238Z,1.20
2023-03-26T08:54:10.651Z,1.02
2023-03-26T08:56:39.648Z,1.40
2023-03-26T08:59:24.252Z,1.90
2023-03-26T09:02:08.661Z,1.42
2023-03-26T09:04:34.626Z,1.52
2023-03-26T09:07:22.622Z,2.33
2023-03-26T09:10:01.588Z,1.00
2023-03-26T09:12:33.676Z,1.42
2023-03-26T09:15:11.758Z,1.10
2023-03-26T09:17:48.320Z,1.20
2023-03-26T09:20:32.824Z,1.20
2023-03-26T09:23:07.145Z,1.13
2023-03-26T09:25:51.520Z,1.27
2023-03-26T09:28:35.993Z,1.52
2023-03-26T09:31:14.418Z,1.60
2023-03-26T09:33:55.752Z,0.95
2023-03-26T09:36:31.893Z,1.20
2023-03-26T09:39:03.686Z,1.70
2023-03-26T09:41:35.109Z,1.10
2023-03-26T09:44:20.336Z,1.10
2023-03-26T09:47:05.372Z,1.35
2023-03-26T09:49:31.162Z,1.85
2023-03-26T09:52:09.535Z,1.40
2023-03-26T09:54:43.733Z,1.73
2023-03-26T09:57:09.600Z,1.75
2023-03-26T09:59:44.808Z,1.20
2023-03-26T10:02:16.717Z,1.20
2023-03-26T10:05:21.286Z,1.08
2023-03-26T10:07:47.216Z,0.95
2023-03-26T10:10:18.060Z,1.15
2023-03-26T10:12:49.431Z,1.00
2023-03-26T10:15:25.184Z,1.17
2023-03-26T10:17:57.544Z,0.73
2023-03-26T10:20:42.220Z,1.10
2023-03-26T10:23:15.675Z,0.95
2023-03-26T10:25:58.316Z,1.02
2023-03-26T10:28:42.673Z,1.30
2023-03-26T10:31:29.012Z,1.30
2023-03-26T10:34:05.399Z,1.20
2023-03-26T10:36:35.773Z,0.70
2023-03-26T10:39:38.142Z,1.15
2023-03-26T10:42:37.224Z,0.95
2023-03-26T10:45:12.468Z,0.82
2023-03-26T10:47:41.428Z,0.90
2023-03-26T10:50:26.322Z,0.80
2023-03-26T10:52:54.078Z,1.42
2023-03-26T10:55:31.245Z,1.48
2023-03-26T10:58:03.898Z,0.80
2023-03-26T11:00:30.560Z,0.93
2023-03-26T11:03:08.437Z,1.50
2023-03-26T11:05:57.116Z,0.98
2023-03-26T11:08:35.144Z,0.90
2023-03-26T11:11:11.392Z,1.13
2023-03-26T11:13:58.967Z,1.33
2023-03-26T11:16:35.420Z,1.00
2023-03-26T11:19:01.629Z,1.48
2023-03-26T11:21:40.753Z,0.90
2023-03-26T11:24:17.893Z,1.77
2023-03-26T11:26:52.338Z,1.20
2023-03-26T11:29:32.823Z,1.15
2023-03-26T11:32:21.564Z,0.63
2023-03-26T11:34:57.992Z,1.55
2023-03-26T11:37:31.577Z,0.80
2023-03-26T11:39:58.532Z,0.85
2023-03-26T11:42:24.973Z,0.85
2023-03-26T11:44:55.539Z,0.80
2023-03-26T11:47:24.400Z,0.90
2023-03-26T11:49:52.720Z,0.68
2023-03-26T11:52:18.574Z,0.65
2023-03-26T11:54:47.751Z,1.13
2023-03-26T11:57:17.997Z,1.00
2023-03-26T11:59:56.487Z,0.90
2023-03-26T12:02:28.522Z,0.80
2023-03-26T12:05:08.812Z,1.00
2023-03-26T12:07:35.110Z,0.80
2023-03-26T12:10:18.462Z,0.80
2023-03-26T12:12:46.008Z,0.98
2023-03-26T12:15:15.793Z,1.23
2023-03-26T12:17:42.656Z,0.97
2023-03-26T12:20:29.428Z,1.50
2023-03-26T12:22:59.338Z,1.00
2023-03-26T12:25:29.853Z,1.35
2023-03-26T12:28:01.808Z,0.77
2023-03-26T12:30:33.307Z,0.93
2023-03-26T12:33:05.248Z,1.00
2023-03-26T12:35:33.738Z,1.35
2023-03-26T12:38:18.546Z,0.70
2023-03-26T12:40:44.542Z,0.90
2023-03-26T12:44:53.233Z,0.57
2023-03-26T12:47:57.629Z,0.70
2023-03-26T12:49:12.593Z,1.58
2023-03-26T12:51:52.122Z,0.75
2023-03-26T12:54:23.063Z,0.63
2023-03-26T12:57:11.268Z,0.60
2023-03-26T13:00:06.660Z,1.23
2023-03-26T13:02:51.631Z,0.77
2023-03-26T13:05:27.868Z,0.60
2023-03-26T13:07:59.760Z,0.65
2023-03-26T13:10:28.789Z,1.13
2023-03-26T13:13:13.840Z,0.93
2023-03-26T13:15:46.482Z,0.80
2023-03-26T13:18:12.274Z,0.55
2023-03-26T13:20:51.022Z,0.63
2023-03-26T13:23:22.132Z,0.73
2023-03-26T13:25:53.587Z,1.17
2023-03-26T13:28:37.915Z,0.70
2023-03-26T13:31:10.105Z,0.82
2023-03-26T13:33:57.864Z,0.90
2023-03-26T13:36:35.875Z,1.30
2023-03-26T13:39:09.268Z,1.20
2023-03-26T13:41:42.045Z,0.80
2023-03-26T13:44:07.964Z,0.82
2023-03-26T13:46:42.322Z,0.80
2023-03-26T13:49:08.329Z,1.23
2023-03-26T13:51:43.997Z,0.80
2023-03-26T13:54:35.202Z,0.80
2023-03-26T13:57:01.154Z,0.98
2023-03-26T13:59:37.166Z,0.65
2023-03-26T14:02:41.370Z,0.95
2023-03-26T14:05:07.631Z,0.88
2023-03-26T14:07:40.939Z,1.15
2023-03-26T14:10:10.301Z,1.00
2023-03-26T14:12:48.272Z,0.98
2023-03-26T14:15:17.956Z,0.88
2023-03-26T14:17:48.318Z,0.88
2023-03-26T14:20:14.154Z,0.88
2023-03-26T14:22:58.915Z,0.75
2023-03-26T14:25:32.048Z,1.17
2023-03-26T14:28:16.450Z,0.98
2023-03-26T14:30:49.278Z,0.90
2023-03-26T14:33:27.859Z,1.40
2023-03-26T14:36:15.489Z,0.90
2023-03-26T14:39:01.246Z,0.70
2023-03-26T14:41:40.393Z,0.90
2023-03-26T14:44:20.115Z,1.10
2023-03-26T14:47:05.632Z,1.00
2023-03-26T14:49:54.702Z,0.75
2023-03-26T14:52:29.063Z,1.20
2023-03-26T14:54:57.031Z,0.70
2023-03-26T14:57:50.403Z,0.88
2023-03-26T15:00:37.560Z,0.55
2023-03-26T15:03:15.437Z,0.70
2023-03-26T15:05:41.373Z,0.70
2023-03-26T15:08:10.734Z,0.82
2023-03-26T15:10:55.813Z,0.80
2023-03-26T15:13:40.260Z,1.00
2023-03-26T15:16:28.066Z,1.00
2023-03-26T15:19:12.913Z,1.17
2023-03-26T15:21:41.892Z,1.10
2023-03-26T15:24:26.683Z,1.48
2023-03-26T15:27:08.590Z,2.55
2023-03-26T15:29:37.643Z,1.42
2023-03-26T15:32:25.329Z,1.40
2023-03-26T15:35:05.569Z,1.05
2023-03-26T15:37:50.291Z,1.15
2023-03-26T15:40:16.373Z,1.38
2023-03-26T15:42:48.256Z,1.58
2023-03-26T15:45:14.167Z,1.45
2023-03-26T15:48:00.616Z,1.52
2023-03-26T15:50:26.683Z,0.88
2023-03-26T15:53:06.033Z,1.67
2023-03-26T15:55:43.160Z,0.90
2023-03-26T15:58:17.339Z,1.15
2023-03-26T16:01:03.674Z,1.20
2023-03-26T16:03:54.898Z,2.20
2023-03-26T16:06:40.689Z,1.33
2023-03-26T16:09:14.313Z,1.80
2023-03-26T16:11:43.572Z,1.85
2023-03-26T16:14:23.158Z,1.40
2023-03-26T16:16:51.573Z,1.58
2023-03-26T16:19:20.424Z,1.23
2023-03-26T16:21:52.317Z,1.10
2023-03-26T16:24:21.041Z,1.10
2023-03-26T16:26:54.022Z,1.05
2023-03-26T16:29:25.379Z,1.10
2023-03-26T16:32:10.364Z,1.08
2023-03-26T16:34:40.171Z,1.88
2023-03-26T16:37:26.027Z,1.13
2023-03-26T16:39:52.336Z,1.45
2023-03-26T16:42:29.755Z,1.88
2023-03-26T16:45:01.666Z,1.38
2023-03-26T16:47:42.963Z,1.35
2023-03-26T16:50:25.285Z,1.98
2023-03-26T16:53:00.368Z,1.38
2023-03-26T16:55:36.812Z,1.48
2023-03-26T16:58:09.983Z,0.88
2023-03-26T17:00:38.988Z,1.77
2023-03-26T17:03:43.002Z,1.58
2023-03-26T17:06:20.296Z,1.55
2023-03-26T17:08:53.115Z,1.30
2023-03-26T17:11:28.447Z,1.15
2023-03-26T17:13:54.224Z,1.35
2023-03-26T17:16:20.643Z,1.52
2023-03-26T17:18:56.968Z,1.48
2023-03-26T17:21:47.125Z,2.30
2023-03-26T17:24:28.912Z,1.80
2023-03-26T17:27:05.593Z,1.75
2023-03-26T17:29:31.548Z,1.80
2023-03-26T17:32:11.675Z,1.52
2023-03-26T17:34:37.708Z,2.42
2023-03-26T17:37:05.007Z,1.50
2023-03-26T17:39:40.182Z,2.28
2023-03-26T17:42:16.583Z,1.52
2023-03-26T17:44:47.584Z,1.75
2023-03-26T17:47:42.885Z,1.63
2023-03-26T17:50:17.222Z,1.73
2023-03-26T17:53:06.830Z,1.77
2023-03-26T17:55:34.891Z,1.40
2023-03-26T17:58:01.586Z,2.28
2023-03-26T18:00:41.609Z,2.17
2023-03-26T18:03:17.932Z,1.70
2023-03-26T18:05:45.433Z,1.75
2023-03-26T18:08:31.265Z,1.45
2023-03-26T18:11:00.814Z,1.98
2023-03-26T18:13:45.544Z,1.63
2023-03-26T18:16:13.037Z,1.52
2023-03-26T18:18:50.219Z,1.52
2023-03-26T18:21:24.937Z,1.40
2023-03-26T18:23:51.302Z,1.90
2023-03-26T18:26:17.029Z,2.20
2023-03-26T18:28:44.370Z,2.13
2023-03-26T18:31:24.622Z,2.38
2023-03-26T18:33:53.775Z,1.75
2023-03-26T18:36:19.955Z,2.08
2023-03-26T18:38:46.166Z,1.92
2023-03-26T18:41:20.661Z,1.38
2023-03-26T18:43:47.092Z,1.92
2023-03-26T18:46:16.128Z,1.80
2023-03-26T18:48:42.112Z,1.45
2023-03-26T18:51:08.355Z,1.90
2023-03-26T18:53:37.317Z,1.65
2023-03-26T18:56:18.041Z,1.70
2023-03-26T18:58:49.328Z,1.42
2023-03-26T19:01:25.061Z,1.70
2023-03-26T19:03:53.021Z,1.40
2023-03-26T19:06:20.209Z,1.77
2023-03-26T19:08:46.283Z,1.58
2023-03-26T19:11:15.187Z,1.50
2023-03-26T19:13:41.156Z,1.48
2023-03-26T19:16:22.234Z,1.48
2023-03-26T19:18:49.221Z,2.70
2023-03-26T19:21:17.265Z,1.38
2023-03-26T19:23:44.702Z,2.47
2023-03-26T19:26:10.882Z,1.52
2023-03-26T19:28:42.577Z,1.40
2023-03-26T19:31:20.014Z,2.30
2023-03-26T19:33:53.109Z,1.77
2023-03-26T19:36:20.718Z,1.50
2023-03-26T19:38:51.391Z,1.48
2023-03-26T19:41:30.289Z,1.90
2023-03-26T19:43:58.822Z,1.70
2023-03-26T19:46:25.695Z,2.60
2023-03-26T19:48:53.809Z,2.75
2023-03-26T19:51:21.401Z,2.63
2023-03-26T19:53:49.480Z,2.58
2023-03-26T19:56:18.034Z,2.40
2023-03-26T19:58:44.196Z,2.13
2023-03-26T20:01:26.118Z,1.90
2023-03-26T20:03:54.922Z,2.70
2023-03-26T20:06:30.801Z,1.90
2023-03-26T20:09:00.445Z,1.85
2023-03-26T20:11:32.938Z,2.95
2023-03-26T20:14:00.061Z,2.50
2023-03-26T20:16:26.481Z,2.10
2023-03-26T20:18:53.316Z,2.33
2023-03-26T20:21:20.244Z,1.77
2023-03-26T20:23:46.074Z,1.65
2023-03-26T20:26:13.784Z,1.70
2023-03-26T20:28:47.647Z,2.53
2023-03-26T20:31:25.648Z,2.42
2023-03-26T20:33:52.262Z,2.42
2023-03-26T20:36:33.291Z,2.28
2023-03-26T20:39:00.941Z,1.75
2023-03-26T20:41:27.231Z,2.63
2023-03-26T20:43:53.012Z,3.55
2023-03-26T20:46:20.030Z,2.28
2023-03-26T20:48:46.304Z,2.97
2023-03-26T20:51:15.015Z,2.10
2023-03-26T20:53:41.585Z,3.60
2023-03-26T20:56:13.036Z,2.53
2023-03-26T20:58:39.869Z,2.40
2023-03-26T21:01:06.252Z,2.45
2023-03-26T21:03:32.096Z,2.65
2023-03-26T21:06:01.652Z,2.15
2023-03-26T21:08:33.434Z,2.00
2023-03-26T21:11:02.810Z,1.90
2023-03-26T21:13:33.550Z,1.73
2023-03-26T21:18:27.106Z,2.42
2023-03-26T21:21:07.661Z,2.85
2023-03-26T21:23:42.723Z,2.10
2023-03-26T21:26:08.921Z,2.72
2023-03-26T21:28:50.086Z,4.03
2023-03-26T21:31:20.453Z,2.58
2023-03-26T21:33:47.747Z,4.28
2023-03-26T21:36:14.328Z,2.67
2023-03-26T21:38:42.892Z,3.10
2023-03-26T21:41:15.513Z,1.92
2023-03-26T21:43:41.239Z,2.70
2023-03-26T21:46:07.533Z,2.05
2023-03-26T21:48:33.557Z,2.03
2023-03-26T21:51:02.647Z,2.95
2023-03-26T21:53:28.711Z,2.58
2023-03-26T21:55:54.413Z,2.63
2023-03-26T21:58:27.754Z,2.50
2023-03-26T22:00:56.958Z,1.45
2023-03-26T22:03:30.874Z,2.72
2023-03-26T22:06:03.421Z,1.58
2023-03-26T22:08:29.336Z,2.83
2023-03-26T22:10:55.309Z,3.50
2023-03-26T22:13:21.211Z,2.55
2023-03-26T22:15:47.062Z,2.13
2023-03-26T22:18:13.621Z,2.25
2023-03-26T22:20:41.930Z,2.88
2023-03-26T22:23:08.646Z,2.40
2023-03-26T22:25:34.838Z,1.95
2023-03-26T22:28:00.613Z,2.03
2023-03-26T22:30:26.593Z,1.83
2023-03-26T22:32:52.718Z,2.72
2023-03-26T22:35:19.050Z,1.88
2023-03-26T22:37:45.045Z,1.80
2023-03-26T22:40:13.689Z,2.40
2023-03-26T22:42:39.847Z,2.60
2023-03-26T22:45:06.096Z,1.80
2023-03-26T22:47:33.795Z,1.85
2023-03-26T22:49:59.964Z,2.17
2023-03-26T22:52:26.449Z,2.25
2023-03-26T22:54:52.301Z,2.45
2023-03-26T22:57:18.619Z,2.78
2023-03-26T22:59:44.411Z,1.77
2023-03-26T23:02:35.159Z,1.50
2023-03-26T23:07:26.749Z,2.15
2023-03-26T23:09:53.132Z,2.58
2023-03-26T23:12:18.870Z,2.33
2023-03-26T23:14:44.578Z,1.73
2023-03-26T23:17:13.856Z,1.73
2023-03-26T23:19:39.630Z,2.00
2023-03-26T23:22:05.353Z,1.63
2023-03-26T23:24:31.047Z,1.23
2023-03-26T23:26:56.769Z,2.45
2023-03-26T23:29:22.570Z,1.17
2023-03-26T23:31:48.465Z,2.15
2023-03-26T23:34:16.125Z,3.17
2023-03-26T23:36:41.909Z,1.27
2023-03-26T23:39:10.108Z,2.42
2023-03-26T23:41:36.077Z,1.83
2023-03-26T23:44:01.828Z,1.50
2023-03-26T23:46:34.128Z,1.35
2023-03-26T23:49:01.500Z,1.80
2023-03-26T23:51:29.132Z,1.42
2023-03-26T23:53:54.995Z,1.67
2023-03-26T23:56:20.765Z,1.30
2023-03-26T23:58:48.028Z,1.20
